Cherry Lane, North Carolina
Current Conditions -  °F | °C
As of 12:35 PM on Friday 19 Dec 2014 (Local Time) from KUKF Reporting Station
Clear Clear  
Wind Chill: 52°   Ceiling: Unl
Heat Index: 52°   Visibility: 10mi
Dew Point: 25°   Wind: 0mph
Humidity: 35%   Direction: NA
Pressure: 30.16"   Gusts: NA
Location:  36.4437°N, 81.0178°W
Report Text: KUKF 191735Z AUTO 00000KT 10SM CLR 11/M04 A3016 RMK AO2
Loading
Personal Weather Stations






























Interactive Weather Map New forecast layout! Learn more

10-Day Weather Forecast

Advertisements
Track Severe Weather on mobile